sensor_id;sensor_type;location;lat;lon;timestamp;temperature;humidity
32524;DHT22;18965;52.242;20.886;2023-04-24T00:02:16;14.10;54.40
32524;DHT22;18965;52.242;20.886;2023-04-24T00:04:42;14.10;54.40
32524;DHT22;18965;52.242;20.886;2023-04-24T00:07:11;14.10;54.50
32524;DHT22;18965;52.242;20.886;2023-04-24T00:09:36;14.00;54.50
32524;DHT22;18965;52.242;20.886;2023-04-24T00:12:02;14.00;54.60
32524;DHT22;18965;52.242;20.886;2023-04-24T00:14:31;14.00;54.70
32524;DHT22;18965;52.242;20.886;2023-04-24T00:16:57;14.00;54.70
32524;DHT22;18965;52.242;20.886;2023-04-24T00:19:23;14.00;54.80
32524;DHT22;18965;52.242;20.886;2023-04-24T00:21:48;13.90;54.90
32524;DHT22;18965;52.242;20.886;2023-04-24T00:24:17;13.90;55.00
32524;DHT22;18965;52.242;20.886;2023-04-24T00:26:43;13.90;55.10
32524;DHT22;18965;52.242;20.886;2023-04-24T00:29:09;13.80;55.10
32524;DHT22;18965;52.242;20.886;2023-04-24T00:31:35;13.80;55.30
32524;DHT22;18965;52.242;20.886;2023-04-24T00:34:01;13.80;55.40
32524;DHT22;18965;52.242;20.886;2023-04-24T00:36:27;13.80;55.50
32524;DHT22;18965;52.242;20.886;2023-04-24T00:38:54;13.70;55.60
32524;DHT22;18965;52.242;20.886;2023-04-24T00:41:20;13.70;55.80
32524;DHT22;18965;52.242;20.886;2023-04-24T00:43:46;13.70;55.90
32524;DHT22;18965;52.242;20.886;2023-04-24T00:46:13;13.60;56.00
32524;DHT22;18965;52.242;20.886;2023-04-24T00:48:39;13.60;56.10
32524;DHT22;18965;52.242;20.886;2023-04-24T00:51:05;13.60;56.30
32524;DHT22;18965;52.242;20.886;2023-04-24T00:53:31;13.50;56.30
32524;DHT22;18965;52.242;20.886;2023-04-24T00:55:58;13.50;56.40
32524;DHT22;18965;52.242;20.886;2023-04-24T00:58:25;13.50;56.50
32524;DHT22;18965;52.242;20.886;2023-04-24T01:00:52;13.50;56.50
32524;DHT22;18965;52.242;20.886;2023-04-24T01:03:25;13.40;56.60
32524;DHT22;18965;52.242;20.886;2023-04-24T01:05:52;13.40;56.60
32524;DHT22;18965;52.242;20.886;2023-04-24T01:08:19;13.40;56.60
32524;DHT22;18965;52.242;20.886;2023-04-24T01:10:46;13.40;56.80
32524;DHT22;18965;52.242;20.886;2023-04-24T01:13:13;13.40;56.80
32524;DHT22;18965;52.242;20.886;2023-04-24T01:15:39;13.30;56.90
32524;DHT22;18965;52.242;20.886;2023-04-24T01:18:05;13.30;57.00
32524;DHT22;18965;52.242;20.886;2023-04-24T01:20:31;13.30;57.10
32524;DHT22;18965;52.242;20.886;2023-04-24T01:22:57;13.30;57.20
32524;DHT22;18965;52.242;20.886;2023-04-24T01:25:24;13.30;57.20
32524;DHT22;18965;52.242;20.886;2023-04-24T01:27:51;13.30;57.30
32524;DHT22;18965;52.242;20.886;2023-04-24T01:30:18;13.30;57.30
32524;DHT22;18965;52.242;20.886;2023-04-24T01:32:44;13.30;57.50
32524;DHT22;18965;52.242;20.886;2023-04-24T01:35:11;13.30;57.50
32524;DHT22;18965;52.242;20.886;2023-04-24T01:37:37;13.20;57.40
32524;DHT22;18965;52.242;20.886;2023-04-24T01:40:04;13.20;57.50
32524;DHT22;18965;52.242;20.886;2023-04-24T01:42:30;13.20;57.60
32524;DHT22;18965;52.242;20.886;2023-04-24T01:44:57;13.20;57.80
32524;DHT22;18965;52.242;20.886;2023-04-24T01:47:23;13.20;57.90
32524;DHT22;18965;52.242;20.886;2023-04-24T01:49:50;13.20;57.90
32524;DHT22;18965;52.242;20.886;2023-04-24T01:52:16;13.20;57.80
32524;DHT22;18965;52.242;20.886;2023-04-24T01:54:43;13.20;57.80
32524;DHT22;18965;52.242;20.886;2023-04-24T01:57:09;13.20;57.80
32524;DHT22;18965;52.242;20.886;2023-04-24T01:59:34;13.20;57.80
32524;DHT22;18965;52.242;20.886;2023-04-24T02:02:02;13.20;57.80
32524;DHT22;18965;52.242;20.886;2023-04-24T02:04:28;13.20;57.80
32524;DHT22;18965;52.242;20.886;2023-04-24T02:06:54;13.20;57.80
32524;DHT22;18965;52.242;20.886;2023-04-24T02:09:19;13.20;57.80
32524;DHT22;18965;52.242;20.886;2023-04-24T02:11:45;13.20;57.90
32524;DHT22;18965;52.242;20.886;2023-04-24T02:14:11;13.20;57.90
32524;DHT22;18965;52.242;20.886;2023-04-24T02:16:37;13.20;58.00
32524;DHT22;18965;52.242;20.886;2023-04-24T02:19:03;13.20;58.10
32524;DHT22;18965;52.242;20.886;2023-04-24T02:21:29;13.10;58.10
32524;DHT22;18965;52.242;20.886;2023-04-24T02:23:56;13.10;58.10
32524;DHT22;18965;52.242;20.886;2023-04-24T02:26:22;13.10;58.20
32524;DHT22;18965;52.242;20.886;2023-04-24T02:28:48;13.00;58.20
32524;DHT22;18965;52.242;20.886;2023-04-24T02:31:14;13.00;58.30
32524;DHT22;18965;52.242;20.886;2023-04-24T02:33:40;13.00;58.40
32524;DHT22;18965;52.242;20.886;2023-04-24T02:36:06;12.90;58.40
32524;DHT22;18965;52.242;20.886;2023-04-24T02:38:31;12.90;58.60
32524;DHT22;18965;52.242;20.886;2023-04-24T02:40:57;12.90;58.60
32524;DHT22;18965;52.242;20.886;2023-04-24T02:43:23;12.80;58.60
32524;DHT22;18965;52.242;20.886;2023-04-24T02:45:49;12.80;58.70
32524;DHT22;18965;52.242;20.886;2023-04-24T02:48:15;12.70;58.90
32524;DHT22;18965;52.242;20.886;2023-04-24T02:50:40;12.70;59.00
32524;DHT22;18965;52.242;20.886;2023-04-24T02:53:06;12.70;59.10
32524;DHT22;18965;52.242;20.886;2023-04-24T02:55:32;12.60;59.10
32524;DHT22;18965;52.242;20.886;2023-04-24T02:57:58;12.60;59.40
32524;DHT22;18965;52.242;20.886;2023-04-24T03:00:23;12.60;59.40
32524;DHT22;18965;52.242;20.886;2023-04-24T03:02:49;12.60;59.40
32524;DHT22;18965;52.242;20.886;2023-04-24T03:05:15;12.50;59.40
32524;DHT22;18965;52.242;20.886;2023-04-24T03:07:41;12.50;59.50
32524;DHT22;18965;52.242;20.886;2023-04-24T03:10:07;12.50;59.50
32524;DHT22;18965;52.242;20.886;2023-04-24T03:12:33;12.50;59.50
32524;DHT22;18965;52.242;20.886;2023-04-24T03:14:59;12.50;60.20
32524;DHT22;18965;52.242;20.886;2023-04-24T03:17:25;12.50;59.60
32524;DHT22;18965;52.242;20.886;2023-04-24T03:19:50;12.60;59.70
32524;DHT22;18965;52.242;20.886;2023-04-24T03:22:16;12.60;59.70
32524;DHT22;18965;52.242;20.886;2023-04-24T03:24:42;12.60;59.70
32524;DHT22;18965;52.242;20.886;2023-04-24T03:27:07;12.60;59.70
32524;DHT22;18965;52.242;20.886;2023-04-24T03:29:33;12.70;59.80
32524;DHT22;18965;52.242;20.886;2023-04-24T03:31:59;12.70;59.90
32524;DHT22;18965;52.242;20.886;2023-04-24T03:34:24;12.70;59.90
32524;DHT22;18965;52.242;20.886;2023-04-24T03:36:50;12.70;59.90
32524;DHT22;18965;52.242;20.886;2023-04-24T03:39:16;12.80;60.00
32524;DHT22;18965;52.242;20.886;2023-04-24T03:41:42;12.90;59.90
32524;DHT22;18965;52.242;20.886;2023-04-24T03:44:07;12.90;59.90
32524;DHT22;18965;52.242;20.886;2023-04-24T03:46:33;13.00;60.00
32524;DHT22;18965;52.242;20.886;2023-04-24T03:48:58;13.10;59.90
32524;DHT22;18965;52.242;20.886;2023-04-24T03:51:24;13.20;59.80
32524;DHT22;18965;52.242;20.886;2023-04-24T03:53:50;13.20;59.60
32524;DHT22;18965;52.242;20.886;2023-04-24T03:56:16;13.30;59.60
32524;DHT22;18965;52.242;20.886;2023-04-24T03:58:42;13.40;59.50
32524;DHT22;18965;52.242;20.886;2023-04-24T04:01:08;13.50;59.60
32524;DHT22;18965;52.242;20.886;2023-04-24T04:03:33;13.50;59.60
32524;DHT22;18965;52.242;20.886;2023-04-24T04:05:59;13.60;59.50
32524;DHT22;18965;52.242;20.886;2023-04-24T04:08:25;13.60;59.40
32524;DHT22;18965;52.242;20.886;2023-04-24T04:10:51;13.70;59.30
32524;DHT22;18965;52.242;20.886;2023-04-24T04:13:16;13.70;59.20
32524;DHT22;18965;52.242;20.886;2023-04-24T04:15:42;13.80;59.10
32524;DHT22;18965;52.242;20.886;2023-04-24T04:18:08;13.90;59.10
32524;DHT22;18965;52.242;20.886;2023-04-24T04:20:34;14.00;58.90
32524;DHT22;18965;52.242;20.886;2023-04-24T04:22:59;14.10;59.00
32524;DHT22;18965;52.242;20.886;2023-04-24T04:25:25;14.10;58.80
32524;DHT22;18965;52.242;20.886;2023-04-24T04:27:51;14.20;58.80
32524;DHT22;18965;52.242;20.886;2023-04-24T04:30:18;14.20;58.50
32524;DHT22;18965;52.242;20.886;2023-04-24T04:32:44;14.30;58.30
32524;DHT22;18965;52.242;20.886;2023-04-24T04:35:10;14.40;58.10
32524;DHT22;18965;52.242;20.886;2023-04-24T04:37:35;14.50;57.80
32524;DHT22;18965;52.242;20.886;2023-04-24T04:40:02;14.50;57.50
32524;DHT22;18965;52.242;20.886;2023-04-24T04:42:32;14.50;57.50
32524;DHT22;18965;52.242;20.886;2023-04-24T04:45:00;14.50;57.50
32524;DHT22;18965;52.242;20.886;2023-04-24T04:47:26;14.60;57.40
32524;DHT22;18965;52.242;20.886;2023-04-24T04:49:52;14.60;57.50
32524;DHT22;18965;52.242;20.886;2023-04-24T04:52:19;14.70;57.70
32524;DHT22;18965;52.242;20.886;2023-04-24T04:54:44;14.90;57.60
32524;DHT22;18965;52.242;20.886;2023-04-24T04:57:11;15.00;57.50
32524;DHT22;18965;52.242;20.886;2023-04-24T04:59:37;15.10;57.40
32524;DHT22;18965;52.242;20.886;2023-04-24T05:02:03;15.40;57.50
32524;DHT22;18965;52.242;20.886;2023-04-24T05:04:29;15.60;57.50
32524;DHT22;18965;52.242;20.886;2023-04-24T05:06:55;15.90;57.70
32524;DHT22;18965;52.242;20.886;2023-04-24T05:09:21;16.30;57.60
32524;DHT22;18965;52.242;20.886;2023-04-24T05:11:47;16.70;57.30
32524;DHT22;18965;52.242;20.886;2023-04-24T05:14:13;17.10;56.30
32524;DHT22;18965;52.242;20.886;2023-04-24T05:16:39;17.40;55.70
32524;DHT22;18965;52.242;20.886;2023-04-24T05:19:05;17.70;55.70
32524;DHT22;18965;52.242;20.886;2023-04-24T05:21:31;18.10;55.10
32524;DHT22;18965;52.242;20.886;2023-04-24T05:23:57;18.50;53.90
32524;DHT22;18965;52.242;20.886;2023-04-24T05:26:22;18.70;52.50
32524;DHT22;18965;52.242;20.886;2023-04-24T05:28:49;18.70;52.20
32524;DHT22;18965;52.242;20.886;2023-04-24T05:31:15;18.70;51.60
32524;DHT22;18965;52.242;20.886;2023-04-24T05:33:43;18.70;51.70
32524;DHT22;18965;52.242;20.886;2023-04-24T05:36:08;18.70;51.70
32524;DHT22;18965;52.242;20.886;2023-04-24T05:38:34;18.80;51.30
32524;DHT22;18965;52.242;20.886;2023-04-24T05:41:00;18.70;51.10
32524;DHT22;18965;52.242;20.886;2023-04-24T05:43:25;18.70;51.10
32524;DHT22;18965;52.242;20.886;2023-04-24T05:45:51;18.70;51.00
32524;DHT22;18965;52.242;20.886;2023-04-24T05:48:18;18.80;51.10
32524;DHT22;18965;52.242;20.886;2023-04-24T05:50:44;18.90;51.10
32524;DHT22;18965;52.242;20.886;2023-04-24T05:53:10;19.00;51.10
32524;DHT22;18965;52.242;20.886;2023-04-24T05:55:36;19.00;51.20
32524;DHT22;18965;52.242;20.886;2023-04-24T05:58:02;19.00;51.10
32524;DHT22;18965;52.242;20.886;2023-04-24T06:00:28;19.00;51.00
32524;DHT22;18965;52.242;20.886;2023-04-24T06:02:54;19.00;50.80
32524;DHT22;18965;52.242;20.886;2023-04-24T06:05:20;19.10;50.80
32524;DHT22;18965;52.242;20.886;2023-04-24T06:07:46;19.90;51.00
32524;DHT22;18965;52.242;20.886;2023-04-24T06:10:12;21.00;50.10
32524;DHT22;18965;52.242;20.886;2023-04-24T06:12:38;21.90;48.50
32524;DHT22;18965;52.242;20.886;2023-04-24T06:15:04;22.60;46.70
32524;DHT22;18965;52.242;20.886;2023-04-24T06:17:31;22.90;45.40
32524;DHT22;18965;52.242;20.886;2023-04-24T06:19:57;22.80;45.00
32524;DHT22;18965;52.242;20.886;2023-04-24T06:22:23;22.60;45.00
32524;DHT22;18965;52.242;20.886;2023-04-24T06:24:48;22.40;45.20
32524;DHT22;18965;52.242;20.886;2023-04-24T06:27:14;22.20;45.70
32524;DHT22;18965;52.242;20.886;2023-04-24T06:29:40;22.20;45.60
32524;DHT22;18965;52.242;20.886;2023-04-24T06:32:05;22.20;45.80
32524;DHT22;18965;52.242;20.886;2023-04-24T06:34:31;22.20;45.60
32524;DHT22;18965;52.242;20.886;2023-04-24T06:36:59;22.20;45.40
32524;DHT22;18965;52.242;20.886;2023-04-24T06:39:25;22.20;45.30
32524;DHT22;18965;52.242;20.886;2023-04-24T06:41:51;22.10;45.40
32524;DHT22;18965;52.242;20.886;2023-04-24T06:44:16;22.10;45.40
32524;DHT22;18965;52.242;20.886;2023-04-24T06:46:42;22.00;45.50
32524;DHT22;18965;52.242;20.886;2023-04-24T06:49:08;21.90;45.20
32524;DHT22;18965;52.242;20.886;2023-04-24T06:51:33;21.80;45.40
32524;DHT22;18965;52.242;20.886;2023-04-24T06:53:59;21.80;45.60
32524;DHT22;18965;52.242;20.886;2023-04-24T06:56:25;21.80;45.60
32524;DHT22;18965;52.242;20.886;2023-04-24T06:58:52;21.70;45.80
32524;DHT22;18965;52.242;20.886;2023-04-24T07:01:17;21.70;45.90
32524;DHT22;18965;52.242;20.886;2023-04-24T07:03:43;21.80;45.70
32524;DHT22;18965;52.242;20.886;2023-04-24T07:06:09;21.70;45.60
32524;DHT22;18965;52.242;20.886;2023-04-24T07:08:38;21.80;45.70
32524;DHT22;18965;52.242;20.886;2023-04-24T07:11:04;21.80;45.80
32524;DHT22;18965;52.242;20.886;2023-04-24T07:13:31;21.90;45.60
32524;DHT22;18965;52.242;20.886;2023-04-24T07:15:56;22.00;46.50
32524;DHT22;18965;52.242;20.886;2023-04-24T07:18:22;22.10;45.60
32524;DHT22;18965;52.242;20.886;2023-04-24T07:20:48;22.20;45.60
32524;DHT22;18965;52.242;20.886;2023-04-24T07:23:16;22.30;45.50
32524;DHT22;18965;52.242;20.886;2023-04-24T07:25:42;22.30;45.20
32524;DHT22;18965;52.242;20.886;2023-04-24T07:28:08;22.40;45.10
32524;DHT22;18965;52.242;20.886;2023-04-24T07:30:34;22.40;45.70
32524;DHT22;18965;52.242;20.886;2023-04-24T07:32:59;22.50;45.10
32524;DHT22;18965;52.242;20.886;2023-04-24T07:35:26;22.60;44.90
32524;DHT22;18965;52.242;20.886;2023-04-24T07:37:55;22.70;44.50
32524;DHT22;18965;52.242;20.886;2023-04-24T07:40:21;22.80;44.30
32524;DHT22;18965;52.242;20.886;2023-04-24T07:42:47;22.80;44.30
32524;DHT22;18965;52.242;20.886;2023-04-24T07:45:14;22.90;44.20
32524;DHT22;18965;52.242;20.886;2023-04-24T07:47:41;23.10;44.20
32524;DHT22;18965;52.242;20.886;2023-04-24T07:50:09;23.30;44.10
32524;DHT22;18965;52.242;20.886;2023-04-24T07:52:35;23.50;43.90
32524;DHT22;18965;52.242;20.886;2023-04-24T07:55:01;23.70;43.90
32524;DHT22;18965;52.242;20.886;2023-04-24T07:57:27;23.90;43.80
32524;DHT22;18965;52.242;20.886;2023-04-24T07:59:53;24.00;43.50
32524;DHT22;18965;52.242;20.886;2023-04-24T08:02:19;24.10;43.20
32524;DHT22;18965;52.242;20.886;2023-04-24T08:04:47;24.10;43.80
32524;DHT22;18965;52.242;20.886;2023-04-24T08:07:12;24.10;43.20
32524;DHT22;18965;52.242;20.886;2023-04-24T08:09:38;24.00;43.20
32524;DHT22;18965;52.242;20.886;2023-04-24T08:12:04;24.00;43.30
32524;DHT22;18965;52.242;20.886;2023-04-24T08:14:30;24.00;43.30
32524;DHT22;18965;52.242;20.886;2023-04-24T08:16:55;23.90;42.80
32524;DHT22;18965;52.242;20.886;2023-04-24T08:19:21;23.80;42.70
32524;DHT22;18965;52.242;20.886;2023-04-24T08:21:47;23.80;42.90
32524;DHT22;18965;52.242;20.886;2023-04-24T08:24:13;23.80;43.00
32524;DHT22;18965;52.242;20.886;2023-04-24T08:26:39;23.80;42.20
32524;DHT22;18965;52.242;20.886;2023-04-24T08:29:05;23.90;42.10
32524;DHT22;18965;52.242;20.886;2023-04-24T08:31:32;23.90;41.90
32524;DHT22;18965;52.242;20.886;2023-04-24T08:33:58;23.90;41.80
32524;DHT22;18965;52.242;20.886;2023-04-24T08:36:25;23.90;41.60
32524;DHT22;18965;52.242;20.886;2023-04-24T08:38:52;23.90;41.90
32524;DHT22;18965;52.242;20.886;2023-04-24T08:41:18;23.90;41.60
32524;DHT22;18965;52.242;20.886;2023-04-24T08:43:47;23.80;41.80
32524;DHT22;18965;52.242;20.886;2023-04-24T08:46:15;23.70;42.10
32524;DHT22;18965;52.242;20.886;2023-04-24T08:48:42;23.60;42.20
32524;DHT22;18965;52.242;20.886;2023-04-24T08:51:08;23.50;42.70
32524;DHT22;18965;52.242;20.886;2023-04-24T08:53:35;23.50;43.20
32524;DHT22;18965;52.242;20.886;2023-04-24T08:56:01;23.50;43.10
32524;DHT22;18965;52.242;20.886;2023-04-24T08:58:28;23.60;43.20
32524;DHT22;18965;52.242;20.886;2023-04-24T09:00:55;23.50;43.20
32524;DHT22;18965;52.242;20.886;2023-04-24T09:03:21;23.50;43.20
32524;DHT22;18965;52.242;20.886;2023-04-24T09:05:48;23.40;43.30
32524;DHT22;18965;52.242;20.886;2023-04-24T09:08:17;23.40;43.50
32524;DHT22;18965;52.242;20.886;2023-04-24T09:10:43;23.30;43.60
32524;DHT22;18965;52.242;20.886;2023-04-24T09:13:10;23.40;43.70
32524;DHT22;18965;52.242;20.886;2023-04-24T09:15:37;23.40;44.00
32524;DHT22;18965;52.242;20.886;2023-04-24T09:18:04;23.50;43.30
32524;DHT22;18965;52.242;20.886;2023-04-24T09:20:30;23.60;43.20
32524;DHT22;18965;52.242;20.886;2023-04-24T09:22:57;23.80;43.10
32524;DHT22;18965;52.242;20.886;2023-04-24T09:25:34;23.90;42.90
32524;DHT22;18965;52.242;20.886;2023-04-24T09:28:05;24.00;42.80
32524;DHT22;18965;52.242;20.886;2023-04-24T09:30:32;24.10;42.40
32524;DHT22;18965;52.242;20.886;2023-04-24T09:33:30;24.20;42.10
32524;DHT22;18965;52.242;20.886;2023-04-24T09:35:56;24.30;41.80
32524;DHT22;18965;52.242;20.886;2023-04-24T09:38:38;24.20;41.80
32524;DHT22;18965;52.242;20.886;2023-04-24T09:41:08;24.30;41.10
32524;DHT22;18965;52.242;20.886;2023-04-24T09:43:34;24.30;41.10
32524;DHT22;18965;52.242;20.886;2023-04-24T09:46:06;24.40;40.90
32524;DHT22;18965;52.242;20.886;2023-04-24T09:48:36;24.50;40.80
32524;DHT22;18965;52.242;20.886;2023-04-24T09:51:04;24.60;40.70
32524;DHT22;18965;52.242;20.886;2023-04-24T09:53:32;24.70;41.00
32524;DHT22;18965;52.242;20.886;2023-04-24T09:56:10;24.70;40.80
32524;DHT22;18965;52.242;20.886;2023-04-24T09:58:38;24.60;40.40
32524;DHT22;18965;52.242;20.886;2023-04-24T10:01:04;24.50;40.80
32524;DHT22;18965;52.242;20.886;2023-04-24T10:03:31;24.40;41.00
32524;DHT22;18965;52.242;20.886;2023-04-24T10:06:01;24.30;40.20
32524;DHT22;18965;52.242;20.886;2023-04-24T10:08:27;24.20;40.10
32524;DHT22;18965;52.242;20.886;2023-04-24T10:10:58;24.10;40.50
32524;DHT22;18965;52.242;20.886;2023-04-24T10:13:25;24.00;40.10
32524;DHT22;18965;52.242;20.886;2023-04-24T10:15:51;23.90;40.30
32524;DHT22;18965;52.242;20.886;2023-04-24T10:18:17;23.80;40.30
32524;DHT22;18965;52.242;20.886;2023-04-24T10:20:44;23.80;39.60
32524;DHT22;18965;52.242;20.886;2023-04-24T10:23:11;23.70;40.20
32524;DHT22;18965;52.242;20.886;2023-04-24T10:25:37;23.70;41.20
32524;DHT22;18965;52.242;20.886;2023-04-24T10:28:03;23.70;41.10
32524;DHT22;18965;52.242;20.886;2023-04-24T10:30:31;23.70;41.20
32524;DHT22;18965;52.242;20.886;2023-04-24T10:33:07;23.70;41.60
32524;DHT22;18965;52.242;20.886;2023-04-24T10:35:42;23.70;41.60
32524;DHT22;18965;52.242;20.886;2023-04-24T10:38:13;23.70;41.40
32524;DHT22;18965;52.242;20.886;2023-04-24T10:40:39;23.70;41.50
32524;DHT22;18965;52.242;20.886;2023-04-24T10:43:06;23.70;41.50
32524;DHT22;18965;52.242;20.886;2023-04-24T10:45:33;23.70;41.80
32524;DHT22;18965;52.242;20.886;2023-04-24T10:48:05;23.70;41.10
32524;DHT22;18965;52.242;20.886;2023-04-24T10:50:47;23.70;41.10
32524;DHT22;18965;52.242;20.886;2023-04-24T10:53:18;23.70;40.60
32524;DHT22;18965;52.242;20.886;2023-04-24T10:55:51;23.70;40.70
32524;DHT22;18965;52.242;20.886;2023-04-24T10:58:26;23.70;41.10
32524;DHT22;18965;52.242;20.886;2023-04-24T11:01:00;23.80;40.80
32524;DHT22;18965;52.242;20.886;2023-04-24T11:03:27;23.80;41.00
32524;DHT22;18965;52.242;20.886;2023-04-24T11:08:32;23.80;41.10
32524;DHT22;18965;52.242;20.886;2023-04-24T11:11:16;23.80;41.00
32524;DHT22;18965;52.242;20.886;2023-04-24T11:16:53;24.00;41.40
32524;DHT22;18965;52.242;20.886;2023-04-24T11:19:21;24.00;41.60
32524;DHT22;18965;52.242;20.886;2023-04-24T11:21:55;24.10;41.50
32524;DHT22;18965;52.242;20.886;2023-04-24T11:26:57;24.10;40.90
32524;DHT22;18965;52.242;20.886;2023-04-24T11:29:44;24.20;40.50
32524;DHT22;18965;52.242;20.886;2023-04-24T11:32:40;24.20;40.20
32524;DHT22;18965;52.242;20.886;2023-04-24T11:35:15;24.20;40.60
32524;DHT22;18965;52.242;20.886;2023-04-24T11:37:52;24.20;40.20
32524;DHT22;18965;52.242;20.886;2023-04-24T11:40:20;24.20;39.70
32524;DHT22;18965;52.242;20.886;2023-04-24T11:42:49;24.20;39.90
32524;DHT22;18965;52.242;20.886;2023-04-24T11:45:17;24.30;39.90
32524;DHT22;18965;52.242;20.886;2023-04-24T11:47:44;24.30;40.10
32524;DHT22;18965;52.242;20.886;2023-04-24T11:50:15;24.40;40.00
32524;DHT22;18965;52.242;20.886;2023-04-24T11:52:45;24.40;39.30
32524;DHT22;18965;52.242;20.886;2023-04-24T11:57:47;24.60;39.60
32524;DHT22;18965;52.242;20.886;2023-04-24T12:00:17;24.70;38.50
32524;DHT22;18965;52.242;20.886;2023-04-24T12:02:43;24.80;38.60
32524;DHT22;18965;52.242;20.886;2023-04-24T12:05:18;24.80;38.20
32524;DHT22;18965;52.242;20.886;2023-04-24T12:07:44;24.80;37.90
32524;DHT22;18965;52.242;20.886;2023-04-24T12:10:10;24.80;37.00
32524;DHT22;18965;52.242;20.886;2023-04-24T12:12:36;24.80;36.60
32524;DHT22;18965;52.242;20.886;2023-04-24T12:15:07;24.70;36.80
32524;DHT22;18965;52.242;20.886;2023-04-24T12:17:33;24.60;36.90
32524;DHT22;18965;52.242;20.886;2023-04-24T12:20:05;24.60;37.20
32524;DHT22;18965;52.242;20.886;2023-04-24T12:22:54;24.50;36.50
32524;DHT22;18965;52.242;20.886;2023-04-24T12:25:25;24.40;36.50
32524;DHT22;18965;52.242;20.886;2023-04-24T12:28:08;24.40;37.40
32524;DHT22;18965;52.242;20.886;2023-04-24T12:30:43;24.40;37.70
32524;DHT22;18965;52.242;20.886;2023-04-24T12:33:21;24.40;37.30
32524;DHT22;18965;52.242;20.886;2023-04-24T12:35:51;24.40;37.30
32524;DHT22;18965;52.242;20.886;2023-04-24T12:38:22;24.40;37.40
32524;DHT22;18965;52.242;20.886;2023-04-24T12:41:01;24.50;37.80
32524;DHT22;18965;52.242;20.886;2023-04-24T12:43:27;24.40;37.90
32524;DHT22;18965;52.242;20.886;2023-04-24T12:45:52;24.40;37.30
32524;DHT22;18965;52.242;20.886;2023-04-24T12:48:18;24.30;37.10
32524;DHT22;18965;52.242;20.886;2023-04-24T12:50:45;24.20;37.40
32524;DHT22;18965;52.242;20.886;2023-04-24T12:53:11;24.10;37.50
32524;DHT22;18965;52.242;20.886;2023-04-24T12:55:37;24.00;37.90
32524;DHT22;18965;52.242;20.886;2023-04-24T12:58:03;23.80;38.30
32524;DHT22;18965;52.242;20.886;2023-04-24T13:00:28;23.60;38.40
32524;DHT22;18965;52.242;20.886;2023-04-24T13:02:54;23.40;38.50
32524;DHT22;18965;52.242;20.886;2023-04-24T13:05:20;23.20;38.90
32524;DHT22;18965;52.242;20.886;2023-04-24T13:07:46;22.90;39.20
32524;DHT22;18965;52.242;20.886;2023-04-24T13:10:11;22.70;39.70
32524;DHT22;18965;52.242;20.886;2023-04-24T13:12:38;22.50;39.70
32524;DHT22;18965;52.242;20.886;2023-04-24T13:15:05;22.20;39.80
32524;DHT22;18965;52.242;20.886;2023-04-24T13:17:31;22.00;40.10
32524;DHT22;18965;52.242;20.886;2023-04-24T13:19:56;21.80;40.40
32524;DHT22;18965;52.242;20.886;2023-04-24T13:22:22;21.70;40.90
32524;DHT22;18965;52.242;20.886;2023-04-24T13:24:48;21.50;41.10
32524;DHT22;18965;52.242;20.886;2023-04-24T13:27:15;21.40;41.20
32524;DHT22;18965;52.242;20.886;2023-04-24T13:29:41;21.30;41.30
32524;DHT22;18965;52.242;20.886;2023-04-24T13:32:08;21.20;41.40
32524;DHT22;18965;52.242;20.886;2023-04-24T13:34:33;21.10;41.40
32524;DHT22;18965;52.242;20.886;2023-04-24T13:37:03;21.00;41.60
32524;DHT22;18965;52.242;20.886;2023-04-24T13:39:29;20.90;41.80
32524;DHT22;18965;52.242;20.886;2023-04-24T13:41:55;20.90;42.10
32524;DHT22;18965;52.242;20.886;2023-04-24T13:44:21;20.90;41.90
32524;DHT22;18965;52.242;20.886;2023-04-24T13:46:49;20.90;41.90
32524;DHT22;18965;52.242;20.886;2023-04-24T13:49:16;20.90;41.50
32524;DHT22;18965;52.242;20.886;2023-04-24T13:51:42;20.90;41.60
32524;DHT22;18965;52.242;20.886;2023-04-24T13:54:08;20.90;41.70
32524;DHT22;18965;52.242;20.886;2023-04-24T13:56:34;21.00;41.80
32524;DHT22;18965;52.242;20.886;2023-04-24T13:59:00;21.00;41.60
32524;DHT22;18965;52.242;20.886;2023-04-24T14:01:25;21.20;41.50
32524;DHT22;18965;52.242;20.886;2023-04-24T14:03:52;21.30;41.40
32524;DHT22;18965;52.242;20.886;2023-04-24T14:06:18;21.50;41.40
32524;DHT22;18965;52.242;20.886;2023-04-24T14:08:45;21.60;41.00
32524;DHT22;18965;52.242;20.886;2023-04-24T14:11:10;21.80;40.80
32524;DHT22;18965;52.242;20.886;2023-04-24T14:13:37;21.90;40.60
32524;DHT22;18965;52.242;20.886;2023-04-24T14:16:03;22.00;39.90
32524;DHT22;18965;52.242;20.886;2023-04-24T14:18:29;22.20;39.60
32524;DHT22;18965;52.242;20.886;2023-04-24T14:20:55;22.20;39.30
32524;DHT22;18965;52.242;20.886;2023-04-24T14:23:21;22.20;39.20
32524;DHT22;18965;52.242;20.886;2023-04-24T14:25:46;22.30;39.10
32524;DHT22;18965;52.242;20.886;2023-04-24T14:28:16;22.30;39.50
32524;DHT22;18965;52.242;20.886;2023-04-24T14:30:43;22.30;39.20
32524;DHT22;18965;52.242;20.886;2023-04-24T14:33:09;22.30;39.20
32524;DHT22;18965;52.242;20.886;2023-04-24T14:35:35;22.40;39.90
32524;DHT22;18965;52.242;20.886;2023-04-24T14:38:01;22.40;39.20
32524;DHT22;18965;52.242;20.886;2023-04-24T14:40:26;22.40;39.00
32524;DHT22;18965;52.242;20.886;2023-04-24T14:42:52;22.40;38.80
32524;DHT22;18965;52.242;20.886;2023-04-24T14:45:18;22.40;38.70
32524;DHT22;18965;52.242;20.886;2023-04-24T14:47:45;22.40;39.10
32524;DHT22;18965;52.242;20.886;2023-04-24T14:50:10;22.50;39.30
32524;DHT22;18965;52.242;20.886;2023-04-24T14:52:37;22.50;39.30
32524;DHT22;18965;52.242;20.886;2023-04-24T14:55:04;22.60;39.30
32524;DHT22;18965;52.242;20.886;2023-04-24T14:57:29;22.70;38.70
32524;DHT22;18965;52.242;20.886;2023-04-24T14:59:55;22.80;38.40
32524;DHT22;18965;52.242;20.886;2023-04-24T15:02:21;22.90;38.20
32524;DHT22;18965;52.242;20.886;2023-04-24T15:04:46;22.90;38.50
32524;DHT22;18965;52.242;20.886;2023-04-24T15:07:12;23.00;38.60
32524;DHT22;18965;52.242;20.886;2023-04-24T15:09:38;23.00;38.50
32524;DHT22;18965;52.242;20.886;2023-04-24T15:12:03;23.00;38.50
32524;DHT22;18965;52.242;20.886;2023-04-24T15:14:29;23.10;38.50
32524;DHT22;18965;52.242;20.886;2023-04-24T15:16:55;23.10;38.10
32524;DHT22;18965;52.242;20.886;2023-04-24T15:19:21;23.10;37.60
32524;DHT22;18965;52.242;20.886;2023-04-24T15:21:47;23.20;37.50
32524;DHT22;18965;52.242;20.886;2023-04-24T15:24:12;23.20;37.50
32524;DHT22;18965;52.242;20.886;2023-04-24T15:26:38;23.20;37.60